Time;durP1;ratioP1;P1;durP2;ratioP2;P2;SDS_P1;SDS_P2;PMS_P1;PMS_P2;Temp;Humidity;BMP_temperature;BMP_pressure;BME280_temperature;BME280_humidity;BME280_pressure;Samples;Min_cycle;Max_cycle;Signal;HPM_P1;HPM_P2
2023/12/19 00:00:29;;;;;;;63.55;18.67;;;;;;;;;;4902604;29;20043;-91
2023/12/19 00:02:56;;;;;;;78.80;20.05;;;;;;;;;;4907193;29;20055;-91
2023/12/19 00:05:22;;;;;;;70.72;19.05;;;;;;;;;;4900216;29;20044;-92
2023/12/19 00:07:49;;;;;;;52.08;18.60;;;;;;;;;;4910150;29;20048;-91
2023/12/19 00:10:16;;;;;;;60.85;18.70;;;;;;;;;;4899856;29;20119;-92
2023/12/19 00:12:43;;;;;;;82.47;17.80;;;;;;;;;;4906800;29;20079;-92
2023/12/19 00:15:10;;;;;;;53.67;17.20;;;;;;;;;;4903660;29;20051;-92
2023/12/19 00:17:39;;;;;;;42.33;17.40;;;;;;;;;;4904510;29;20039;-92
2023/12/19 00:20:06;;;;;;;52.63;16.40;;;;;;;;;;4898089;29;20041;-92
2023/12/19 00:22:33;;;;;;;59.15;18.17;;;;;;;;;;4852942;29;20493;-92
2023/12/19 00:24:59;;;;;;;82.35;19.38;;;;;;;;;;4888848;29;20425;-92
2023/12/19 00:27:26;;;;;;;78.85;17.42;;;;;;;;;;4880991;29;20524;-93
2023/12/19 00:29:53;;;;;;;46.58;16.70;;;;;;;;;;4905808;29;20048;-92
2023/12/19 00:32:19;;;;;;;69.47;18.08;;;;;;;;;;4899825;29;20048;-93
2023/12/19 00:34:46;;;;;;;99.45;19.58;;;;;;;;;;4906411;29;20092;-92
2023/12/19 00:37:13;;;;;;;47.63;15.98;;;;;;;;;;4899235;29;20096;-93
2023/12/19 00:39:40;;;;;;;42.25;15.95;;;;;;;;;;4905095;29;20039;-93
2023/12/19 00:42:07;;;;;;;94.10;19.38;;;;;;;;;;4903792;29;20570;-92
2023/12/19 00:44:36;;;;;;;59.47;15.75;;;;;;;;;;4901604;29;20060;-92
2023/12/19 00:47:03;;;;;;;64.97;16.33;;;;;;;;;;4905745;29;20037;-93
2023/12/19 00:49:30;;;;;;;100.63;18.15;;;;;;;;;;4898769;29;20052;-92
2023/12/19 00:51:56;;;;;;;49.92;15.88;;;;;;;;;;4892999;29;20044;-93
2023/12/19 00:54:23;;;;;;;65.40;15.50;;;;;;;;;;4912177;29;20438;-93
2023/12/19 00:56:50;;;;;;;87.50;17.05;;;;;;;;;;4887818;29;20043;-93
2023/12/19 00:59:17;;;;;;;61.47;15.32;;;;;;;;;;4900360;29;20036;-92
2023/12/19 01:01:43;;;;;;;80.57;18.23;;;;;;;;;;4884289;29;20416;-92
2023/12/19 01:04:10;;;;;;;90.28;17.70;;;;;;;;;;4902529;29;20060;-93
2023/12/19 01:06:38;;;;;;;57.42;15.77;;;;;;;;;;4903798;29;20496;-92
2023/12/19 01:09:05;;;;;;;64.38;15.93;;;;;;;;;;4898112;29;20041;-92
2023/12/19 01:11:32;;;;;;;94.85;17.05;;;;;;;;;;4898773;29;20040;-94
2023/12/19 01:13:58;;;;;;;70.32;15.07;;;;;;;;;;4906666;29;20041;-93
2023/12/19 01:16:25;;;;;;;74.25;15.65;;;;;;;;;;4867032;29;20049;-93
2023/12/19 01:18:52;;;;;;;100.07;16.50;;;;;;;;;;4906354;29;20051;-93
2023/12/19 01:21:18;;;;;;;49.70;13.75;;;;;;;;;;4883118;29;20143;-93
2023/12/19 01:23:45;;;;;;;49.80;14.30;;;;;;;;;;4907284;29;20096;-94
2023/12/19 01:26:12;;;;;;;87.95;16.02;;;;;;;;;;4884186;29;20723;-93
2023/12/19 01:28:49;;;;;;;70.10;14.52;;;;;;;;;;4916556;29;20048;-93
2023/12/19 01:31:16;;;;;;;54.58;15.02;;;;;;;;;;4902381;29;20500;-93
2023/12/19 01:33:43;;;;;;;42.50;12.48;;;;;;;;;;4900171;29;20036;-93
2023/12/19 01:36:10;;;;;;;57.65;13.93;;;;;;;;;;4905408;29;20119;-93
2023/12/19 01:38:37;;;;;;;72.78;13.65;;;;;;;;;;4896110;29;20041;-93
2023/12/19 01:41:03;;;;;;;66.32;13.65;;;;;;;;;;4901963;29;20123;-94
2023/12/19 01:43:30;;;;;;;62.63;12.82;;;;;;;;;;4899639;29;20064;-93
2023/12/19 01:45:57;;;;;;;66.55;12.25;;;;;;;;;;4907536;29;20036;-93
2023/12/19 01:48:25;;;;;;;92.43;15.30;;;;;;;;;;4897875;29;20117;-93
2023/12/19 01:50:52;;;;;;;52.38;12.02;;;;;;;;;;4891038;29;20127;-94
2023/12/19 01:53:20;;;;;;;55.28;11.95;;;;;;;;;;4885065;29;20416;-93
2023/12/19 01:55:48;;;;;;;50.75;13.35;;;;;;;;;;4904379;29;20032;-93
2023/12/19 01:58:15;;;;;;;54.50;10.55;;;;;;;;;;4885492;29;20048;-94
2023/12/19 02:00:45;;;;;;;274.85;19.55;;;;;;;;;;5030448;23;20024;31
2023/12/19 02:03:12;;;;;;;47.38;10.93;;;;;;;;;;4844964;29;20086;-94
2023/12/19 02:05:39;;;;;;;29.83;9.82;;;;;;;;;;4861269;29;20057;-94
2023/12/19 02:08:05;;;;;;;100.75;13.70;;;;;;;;;;4853072;29;20042;-94
2023/12/19 02:10:32;;;;;;;54.65;10.75;;;;;;;;;;4859010;29;20045;-94
2023/12/19 02:12:59;;;;;;;52.38;11.07;;;;;;;;;;4852605;29;20077;-93
2023/12/19 02:15:26;;;;;;;129.80;14.45;;;;;;;;;;4845830;29;20046;-94
2023/12/19 02:17:52;;;;;;;65.00;11.30;;;;;;;;;;4864464;29;20053;-94
2023/12/19 02:20:19;;;;;;;37.83;9.88;;;;;;;;;;4865210;29;20386;-93
2023/12/19 02:22:49;;;;;;;78.15;11.77;;;;;;;;;;4864999;29;20074;-94
2023/12/19 02:25:16;;;;;;;86.53;11.73;;;;;;;;;;4850794;29;20053;-93
2023/12/19 02:27:42;;;;;;;31.88;9.65;;;;;;;;;;4850454;29;20042;-94
2023/12/19 02:30:09;;;;;;;98.25;12.43;;;;;;;;;;4878266;29;20057;-94
2023/12/19 02:32:36;;;;;;;82.00;11.50;;;;;;;;;;4866527;29;20110;-93
2023/12/19 02:35:03;;;;;;;41.45;9.95;;;;;;;;;;4854751;29;20041;-94
2023/12/19 02:37:30;;;;;;;116.78;12.43;;;;;;;;;;4861299;29;20038;-94
2023/12/19 02:39:56;;;;;;;84.38;10.77;;;;;;;;;;4868329;29;20136;-93
2023/12/19 02:42:23;;;;;;;20.95;7.88;;;;;;;;;;4849684;29;20057;-94
2023/12/19 02:44:50;;;;;;;75.28;9.88;;;;;;;;;;4865063;29;20065;-94
2023/12/19 02:47:16;;;;;;;107.57;10.93;;;;;;;;;;4866855;29;20061;-94
2023/12/19 02:49:43;;;;;;;18.55;7.05;;;;;;;;;;4866305;29;20056;-94
2023/12/19 02:52:09;;;;;;;91.70;12.02;;;;;;;;;;4859566;29;20109;-94
2023/12/19 02:54:36;;;;;;;86.13;10.35;;;;;;;;;;4846653;29;20041;-94
2023/12/19 02:57:03;;;;;;;33.03;7.93;;;;;;;;;;4854853;29;20083;-94
2023/12/19 02:59:29;;;;;;;107.93;10.70;;;;;;;;;;4845156;29;20030;-94
2023/12/19 03:01:56;;;;;;;123.32;11.70;;;;;;;;;;4854561;29;20057;-94
2023/12/19 03:04:23;;;;;;;28.70;7.05;;;;;;;;;;4863243;29;20099;-94
2023/12/19 03:06:49;;;;;;;101.03;10.60;;;;;;;;;;4851557;29;20033;-94
2023/12/19 03:09:16;;;;;;;91.03;9.80;;;;;;;;;;4848309;29;20049;-93
2023/12/19 03:11:56;;;;;;;26.77;6.93;;;;;;;;;;4845607;29;20078;-94
2023/12/19 03:14:23;;;;;;;75.05;8.57;;;;;;;;;;4862449;29;20125;-93
2023/12/19 03:16:49;;;;;;;100.00;10.48;;;;;;;;;;4850895;29;20128;-94
2023/12/19 03:19:16;;;;;;;42.35;6.80;;;;;;;;;;4864267;29;20477;-93
2023/12/19 03:21:43;;;;;;;21.50;5.93;;;;;;;;;;4862507;29;20058;-94
2023/12/19 03:24:10;;;;;;;57.08;7.10;;;;;;;;;;4870725;29;20420;-93
2023/12/19 03:26:36;;;;;;;83.22;9.15;;;;;;;;;;4862563;29;20038;-94
2023/12/19 03:29:03;;;;;;;29.33;6.00;;;;;;;;;;4870724;29;20572;-93
2023/12/19 03:31:32;;;;;;;120.53;10.60;;;;;;;;;;4861169;29;20042;-94
2023/12/19 03:34:01;;;;;;;90.72;9.85;;;;;;;;;;4837822;29;20638;-94
2023/12/19 03:36:28;;;;;;;64.57;8.10;;;;;;;;;;4849328;29;20110;-93
2023/12/19 03:38:55;;;;;;;31.48;6.38;;;;;;;;;;4866151;29;20057;-94
2023/12/19 03:41:22;;;;;;;86.30;8.77;;;;;;;;;;4864755;29;20740;-93
2023/12/19 03:43:48;;;;;;;65.53;7.82;;;;;;;;;;4862492;29;20056;-94
2023/12/19 03:46:15;;;;;;;40.20;7.47;;;;;;;;;;4868235;29;20058;-93
2023/12/19 03:48:44;;;;;;;56.00;6.40;;;;;;;;;;4859122;29;20061;-93
2023/12/19 03:51:12;;;;;;;30.75;6.20;;;;;;;;;;4855821;29;20136;-94
2023/12/19 03:53:38;;;;;;;67.95;7.75;;;;;;;;;;4862135;29;20046;-94
2023/12/19 03:56:05;;;;;;;80.18;8.65;;;;;;;;;;4855181;29;20056;-94
2023/12/19 03:58:32;;;;;;;51.47;7.18;;;;;;;;;;4849097;29;20053;-93
2023/12/19 04:01:00;;;;;;;76.03;8.05;;;;;;;;;;4851195;29;20042;-94
2023/12/19 04:03:27;;;;;;;105.38;9.35;;;;;;;;;;4852123;29;20125;-93
2023/12/19 04:05:53;;;;;;;38.85;6.38;;;;;;;;;;4865056;29;20045;-93
2023/12/19 04:08:22;;;;;;;34.05;6.30;;;;;;;;;;4854277;29;20048;-93
2023/12/19 04:10:49;;;;;;;76.32;8.20;;;;;;;;;;4864474;29;20038;-93
2023/12/19 04:13:16;;;;;;;65.75;7.93;;;;;;;;;;4856174;29;20049;-93
2023/12/19 04:15:42;;;;;;;36.15;6.15;;;;;;;;;;4859766;29;20049;-93
2023/12/19 04:18:10;;;;;;;92.68;8.73;;;;;;;;;;4870176;29;20050;-93
2023/12/19 04:20:39;;;;;;;109.40;10.18;;;;;;;;;;4846593;29;20462;-93
2023/12/19 04:23:05;;;;;;;40.75;7.03;;;;;;;;;;4854013;29;20046;-93
2023/12/19 04:25:34;;;;;;;123.50;10.70;;;;;;;;;;4866238;29;20034;-93
2023/12/19 04:28:01;;;;;;;93.43;10.45;;;;;;;;;;4864708;29;20051;-94
2023/12/19 04:30:28;;;;;;;50.10;7.10;;;;;;;;;;4854564;29;20042;-93
2023/12/19 04:32:55;;;;;;;30.88;5.95;;;;;;;;;;4849280;29;20102;-93
2023/12/19 04:35:22;;;;;;;69.57;7.72;;;;;;;;;;4877702;29;20045;-93
2023/12/19 04:37:48;;;;;;;21.85;5.60;;;;;;;;;;4867559;29;20041;-93
2023/12/19 04:40:15;;;;;;;42.28;6.88;;;;;;;;;;4873003;29;20048;-93
2023/12/19 04:42:42;;;;;;;77.30;8.10;;;;;;;;;;4849564;29;20469;-93
2023/12/19 04:45:09;;;;;;;52.90;7.80;;;;;;;;;;4856758;29;20070;-93
2023/12/19 04:47:36;;;;;;;94.35;9.57;;;;;;;;;;4849296;29;20451;-94
2023/12/19 04:50:03;;;;;;;84.47;8.73;;;;;;;;;;4855503;29;20045;-93
2023/12/19 04:52:30;;;;;;;42.58;6.85;;;;;;;;;;4851299;29;20087;-94
2023/12/19 04:54:56;;;;;;;53.85;6.95;;;;;;;;;;4866033;29;20124;-93
2023/12/19 04:57:23;;;;;;;95.53;11.02;;;;;;;;;;4860569;29;20493;-92
2023/12/19 04:59:50;;;;;;;72.03;8.50;;;;;;;;;;4854979;29;20042;-92
2023/12/19 05:02:16;;;;;;;64.13;8.40;;;;;;;;;;4850051;29;20117;-92
2023/12/19 05:04:44;;;;;;;82.65;9.25;;;;;;;;;;4841800;29;20077;-92
2023/12/19 05:07:10;;;;;;;103.03;11.27;;;;;;;;;;4851453;29;20046;-91
2023/12/19 05:09:37;;;;;;;118.38;10.68;;;;;;;;;;4842624;29;20508;-92
2023/12/19 05:12:04;;;;;;;64.95;8.68;;;;;;;;;;4861561;29;20030;-91
2023/12/19 05:14:31;;;;;;;89.60;9.90;;;;;;;;;;4845287;29;20697;-92
2023/12/19 05:16:59;;;;;;;72.90;9.07;;;;;;;;;;4841007;29;20686;-91
2023/12/19 05:19:26;;;;;;;58.33;7.72;;;;;;;;;;4837766;29;20068;-91
2023/12/19 05:21:53;;;;;;;73.10;8.55;;;;;;;;;;4845909;29;20046;-92
2023/12/19 05:24:19;;;;;;;45.30;7.78;;;;;;;;;;4846161;29;20545;-91
2023/12/19 05:26:46;;;;;;;61.00;8.27;;;;;;;;;;4857848;29;20049;-91
2023/12/19 05:29:13;;;;;;;131.77;11.68;;;;;;;;;;4846999;29;20052;-91
2023/12/19 05:31:39;;;;;;;80.85;9.70;;;;;;;;;;4842113;29;20046;-91
2023/12/19 05:34:06;;;;;;;91.88;9.82;;;;;;;;;;4850703;29;20045;-92
2023/12/19 05:36:34;;;;;;;88.07;9.82;;;;;;;;;;4857333;29;20061;-92
2023/12/19 05:39:06;;;;;;;81.47;9.10;;;;;;;;;;4862519;29;20149;-92
2023/12/19 05:41:35;;;;;;;82.82;9.18;;;;;;;;;;4843065;29;20061;-92
2023/12/19 05:44:07;;;;;;;108.80;10.25;;;;;;;;;;4840415;29;20053;-93
2023/12/19 05:46:34;;;;;;;114.05;10.85;;;;;;;;;;4836973;29;20049;-91
2023/12/19 05:49:00;;;;;;;84.57;9.35;;;;;;;;;;4840646;29;20208;-92
2023/12/19 05:51:27;;;;;;;117.72;11.13;;;;;;;;;;4846165;29;20049;-92
2023/12/19 05:53:56;;;;;;;46.65;6.88;;;;;;;;;;4859608;29;20403;-91
2023/12/19 05:56:24;;;;;;;52.55;7.35;;;;;;;;;;4863127;29;20053;-93
2023/12/19 05:58:51;;;;;;;58.78;7.10;;;;;;;;;;4860666;29;20879;-93
2023/12/19 06:01:17;;;;;;;57.67;7.63;;;;;;;;;;4870671;29;20065;-92
2023/12/19 06:03:44;;;;;;;69.90;8.45;;;;;;;;;;4845826;29;20048;-93
2023/12/19 06:06:15;;;;;;;162.43;13.68;;;;;;;;;;4859536;29;20041;-92
2023/12/19 06:08:43;;;;;;;63.58;8.93;;;;;;;;;;4869505;29;20454;-92
2023/12/19 06:11:10;;;;;;;55.03;7.22;;;;;;;;;;4848406;29;20635;-92
2023/12/19 06:13:37;;;;;;;52.05;7.20;;;;;;;;;;4861949;29;21225;-93
2023/12/19 06:16:04;;;;;;;84.47;9.65;;;;;;;;;;4859485;29;20034;-92
2023/12/19 06:18:31;;;;;;;54.88;7.63;;;;;;;;;;4850307;29;20042;-92
2023/12/19 06:21:01;;;;;;;51.40;7.35;;;;;;;;;;4858869;29;20168;-92
2023/12/19 06:23:28;;;;;;;69.25;8.80;;;;;;;;;;4851917;29;20113;-92
2023/12/19 06:25:55;;;;;;;72.28;8.10;;;;;;;;;;4858116;29;20087;-91
2023/12/19 06:28:22;;;;;;;53.80;7.63;;;;;;;;;;4860542;29;20462;-92
2023/12/19 06:30:51;;;;;;;67.20;7.78;;;;;;;;;;4842568;29;20128;-92
2023/12/19 06:33:18;;;;;;;104.05;10.15;;;;;;;;;;4852668;29;20109;-93
2023/12/19 06:35:51;;;;;;;87.05;9.65;;;;;;;;;;4865393;29;20079;-94
2023/12/19 06:38:18;;;;;;;33.10;5.97;;;;;;;;;;4850854;29;20474;-92
2023/12/19 06:40:46;;;;;;;131.40;12.20;;;;;;;;;;4862019;29;20451;-93
2023/12/19 06:43:12;;;;;;;51.90;7.75;;;;;;;;;;4864717;29;20070;-92
2023/12/19 06:45:39;;;;;;;73.35;8.70;;;;;;;;;;4866352;29;20052;-92
2023/12/19 06:48:06;;;;;;;151.40;13.65;;;;;;;;;;4857376;29;20053;-92
2023/12/19 06:50:33;;;;;;;102.38;12.27;;;;;;;;;;4866356;29;20045;-92
2023/12/19 06:53:00;;;;;;;35.50;5.22;;;;;;;;;;4842057;29;20133;-93
2023/12/19 06:55:30;;;;;;;143.45;12.75;;;;;;;;;;4864650;29;20101;-92
2023/12/19 06:57:57;;;;;;;107.45;10.07;;;;;;;;;;4856353;29;20052;-93
2023/12/19 07:00:24;;;;;;;71.00;9.88;;;;;;;;;;4848018;29;20070;-93
2023/12/19 07:02:51;;;;;;;121.82;14.40;;;;;;;;;;4854380;29;20092;-92
2023/12/19 07:05:18;;;;;;;93.38;11.35;;;;;;;;;;4846443;29;20058;-92
2023/12/19 07:07:47;;;;;;;84.95;9.85;;;;;;;;;;4864035;29;20056;-92
2023/12/19 07:10:17;;;;;;;92.18;10.85;;;;;;;;;;4858653;29;20134;-93
2023/12/19 07:12:43;;;;;;;45.80;7.43;;;;;;;;;;4869524;29;20033;-93
2023/12/19 07:15:10;;;;;;;104.30;10.85;;;;;;;;;;4846484;29;20077;-92
2023/12/19 07:17:37;;;;;;;121.10;11.80;;;;;;;;;;4853760;29;20081;-92
2023/12/19 07:20:04;;;;;;;110.55;10.25;;;;;;;;;;4845238;29;20058;-93
2023/12/19 07:22:31;;;;;;;88.45;10.13;;;;;;;;;;4867134;29;20089;-92
2023/12/19 07:24:58;;;;;;;63.05;7.93;;;;;;;;;;4831357;29;20098;-92
2023/12/19 07:27:25;;;;;;;164.93;14.52;;;;;;;;;;4863285;29;20037;-92
2023/12/19 07:29:51;;;;;;;41.67;8.32;;;;;;;;;;4863334;29;20125;-93
2023/12/19 07:32:18;;;;;;;76.78;9.85;;;;;;;;;;4860867;29;20046;-93
2023/12/19 07:34:46;;;;;;;85.15;9.85;;;;;;;;;;4864584;29;20499;-93
2023/12/19 07:37:13;;;;;;;68.75;9.18;;;;;;;;;;4842196;29;20046;-92
2023/12/19 07:39:39;;;;;;;78.82;8.85;;;;;;;;;;4861012;29;20069;-92
2023/12/19 07:42:06;;;;;;;124.88;12.00;;;;;;;;;;4825522;29;20053;-92
2023/12/19 07:44:33;;;;;;;41.83;7.82;;;;;;;;;;4849740;29;20048;-92
2023/12/19 07:46:59;;;;;;;68.72;10.43;;;;;;;;;;4844002;29;20053;-92
2023/12/19 07:49:26;;;;;;;94.45;10.63;;;;;;;;;;4862187;29;20037;-93
2023/12/19 07:51:53;;;;;;;48.88;7.25;;;;;;;;;;4860743;29;20106;-92
2023/12/19 07:54:21;;;;;;;41.67;7.25;;;;;;;;;;4855919;29;20050;-92
2023/12/19 07:56:48;;;;;;;70.38;9.13;;;;;;;;;;4861790;29;20145;-92
2023/12/19 07:59:14;;;;;;;128.75;12.27;;;;;;;;;;4859751;29;20434;-92
2023/12/19 08:01:46;;;;;;;107.32;10.95;;;;;;;;;;4864080;29;20054;-92
2023/12/19 08:04:13;;;;;;;87.82;9.98;;;;;;;;;;4856278;29;20125;-92
2023/12/19 08:06:41;;;;;;;63.80;8.18;;;;;;;;;;4866254;29;20497;-92
2023/12/19 08:09:13;;;;;;;134.10;12.27;;;;;;;;;;4857325;29;20050;-92
2023/12/19 08:11:40;;;;;;;72.80;9.73;;;;;;;;;;4862194;29;20065;-92
2023/12/19 08:14:07;;;;;;;96.75;10.35;;;;;;;;;;4843651;29;20066;-93
2023/12/19 08:16:34;;;;;;;72.78;9.15;;;;;;;;;;4862344;29;20052;-93
2023/12/19 08:19:00;;;;;;;27.48;6.63;;;;;;;;;;4847336;29;20049;-92
2023/12/19 08:21:27;;;;;;;83.68;9.68;;;;;;;;;;4841284;29;20041;-93
2023/12/19 08:23:54;;;;;;;59.03;8.27;;;;;;;;;;4863014;29;20116;-92
2023/12/19 08:26:21;;;;;;;32.55;7.57;;;;;;;;;;4842405;29;20412;-92
2023/12/19 08:28:48;;;;;;;129.73;12.20;;;;;;;;;;4854421;29;20076;-93
2023/12/19 08:31:14;;;;;;;109.72;11.57;;;;;;;;;;4840456;29;20085;-92
2023/12/19 08:33:43;;;;;;;98.28;11.23;;;;;;;;;;4850984;29;20046;-94
2023/12/19 08:36:11;;;;;;;124.70;11.27;;;;;;;;;;4856215;29;20516;-92
2023/12/19 08:38:57;;;;;;;69.18;8.80;;;;;;;;;;4846312;29;20049;-93
2023/12/19 08:41:24;;;;;;;65.28;7.65;;;;;;;;;;4858432;29;20044;-92
2023/12/19 08:43:54;;;;;;;82.57;10.00;;;;;;;;;;4864865;29;20045;-92
2023/12/19 08:46:21;;;;;;;97.93;10.18;;;;;;;;;;4846705;29;20058;-92
2023/12/19 08:48:47;;;;;;;91.40;10.55;;;;;;;;;;4847446;29;20255;-92
2023/12/19 08:51:15;;;;;;;87.22;9.90;;;;;;;;;;4848009;29;20081;-91
2023/12/19 08:53:41;;;;;;;96.07;10.35;;;;;;;;;;4844435;29;20041;-92
2023/12/19 08:56:08;;;;;;;81.38;10.23;;;;;;;;;;4861334;29;20049;-92
2023/12/19 08:58:35;;;;;;;50.83;9.02;;;;;;;;;;4854297;29;20077;-92
2023/12/19 09:01:01;;;;;;;68.95;8.45;;;;;;;;;;4859834;29;20113;-93
2023/12/19 09:03:28;;;;;;;72.85;8.77;;;;;;;;;;4838641;29;20045;-92
2023/12/19 09:05:55;;;;;;;86.60;9.95;;;;;;;;;;4863426;29;20088;-93
2023/12/19 09:08:23;;;;;;;61.95;8.52;;;;;;;;;;4859297;29;20058;-92
2023/12/19 09:10:50;;;;;;;87.20;11.45;;;;;;;;;;4845061;29;20060;-92
2023/12/19 09:13:17;;;;;;;109.40;11.25;;;;;;;;;;4829006;29;20399;-93
2023/12/19 09:15:44;;;;;;;71.85;8.77;;;;;;;;;;4858135;29;20125;-92
2023/12/19 09:18:11;;;;;;;96.57;9.90;;;;;;;;;;4848778;29;20038;-93
2023/12/19 09:20:38;;;;;;;116.78;12.32;;;;;;;;;;4856127;29;20041;-93
2023/12/19 09:23:05;;;;;;;35.67;6.35;;;;;;;;;;4864847;29;20050;-94
2023/12/19 09:25:31;;;;;;;95.45;11.02;;;;;;;;;;4855730;29;20113;-94
2023/12/19 09:28:01;;;;;;;94.05;9.75;;;;;;;;;;4847508;29;20041;-93
2023/12/19 09:30:28;;;;;;;43.13;8.05;;;;;;;;;;4860726;29;20041;-94
2023/12/19 09:32:57;;;;;;;51.22;7.15;;;;;;;;;;4861363;29;20052;-94
2023/12/19 09:35:24;;;;;;;110.13;11.23;;;;;;;;;;4847870;29;20480;-93
2023/12/19 09:37:51;;;;;;;70.85;8.95;;;;;;;;;;4865892;29;20486;-93
2023/12/19 09:40:19;;;;;;;98.68;10.70;;;;;;;;;;4865765;29;20486;-93
2023/12/19 09:42:47;;;;;;;105.72;10.93;;;;;;;;;;4847303;29;20408;-93
2023/12/19 09:45:14;;;;;;;55.53;8.38;;;;;;;;;;4851623;29;20053;-94
2023/12/19 09:47:44;;;;;;;100.82;10.38;;;;;;;;;;4855589;29;20106;-93
2023/12/19 09:50:12;;;;;;;102.82;10.32;;;;;;;;;;4866480;29;20094;-93
2023/12/19 09:52:41;;;;;;;66.07;9.00;;;;;;;;;;4859700;29;20050;-94
2023/12/19 09:55:10;;;;;;;75.70;9.27;;;;;;;;;;4850896;29;20045;-93
2023/12/19 09:57:38;;;;;;;68.70;8.70;;;;;;;;;;4826978;29;20172;-94
2023/12/19 10:00:08;;;;;;;99.35;9.80;;;;;;;;;;4865500;29;20065;-93
2023/12/19 10:02:35;;;;;;;65.22;8.75;;;;;;;;;;4848472;29;20046;-93
2023/12/19 10:05:02;;;;;;;31.77;6.97;;;;;;;;;;4864072;29;20059;-93
2023/12/19 10:07:31;;;;;;;56.97;9.27;;;;;;;;;;4847978;29;20049;-92
2023/12/19 10:10:27;;;;;;;147.45;14.15;;;;;;;;;;4768327;30;20145;-93
2023/12/19 10:13:37;;;;;;;162.48;15.15;;;;;;;;;;4710730;30;20152;-93
2023/12/19 10:16:32;;;;;;;92.97;11.52;;;;;;;;;;4659274;30;20162;-93
2023/12/19 10:19:26;;;;;;;53.33;10.30;;;;;;;;;;4706055;30;20053;-93
2023/12/19 10:22:08;;;;;;;78.22;10.65;;;;;;;;;;4713268;30;20064;-93
2023/12/19 10:25:09;;;;;;;96.45;11.15;;;;;;;;;;4669406;30;20528;-93
2023/12/19 10:27:55;;;;;;;;;;;;;;;;;;;;;
2023/12/19 10:31:22;;;;;;;346.33;24.88;;;;;;;;;;4696170;30;20098;-93
2023/12/19 10:33:55;;;;;;;89.38;9.48;;;;;;;;;;4773001;30;20569;-92
2023/12/19 10:36:56;;;;;;;64.07;8.40;;;;;;;;;;4802157;29;20062;-93
2023/12/19 10:40:26;;;;;;;84.43;9.15;;;;;;;;;;4776243;29;20471;-93
2023/12/19 10:43:52;;;;;;;;;;;;;;;;;;;;;
2023/12/19 10:46:54;;;;;;;156.90;13.82;;;;;;;;;;4697262;30;20954;-94
2023/12/19 10:49:59;;;;;;;153.18;12.65;;;;;;;;;;4643956;30;20076;-93
2023/12/19 10:53:09;;;;;;;;;;;;;;;;;;;;;
2023/12/19 10:56:10;;;;;;;;;;;;;;;;;;;;;
2023/12/19 10:59:20;;;;;;;109.13;11.43;;;;;;;;;;4677814;30;20112;-94
2023/12/19 11:02:33;;;;;;;;;;;;;;;;;;;;;
2023/12/19 11:05:37;;;;;;;;;;;;;;;;;;;;;
2023/12/19 11:08:31;;;;;;;79.95;9.57;;;;;;;;;;4789791;29;20163;-93
2023/12/19 11:11:21;;;;;;;85.63;10.07;;;;;;;;;;4862889;29;20038;-93
2023/12/19 11:14:31;;;;;;;108.68;11.32;;;;;;;;;;4784006;29;20051;-94
2023/12/19 11:17:34;;;;;;;139.20;12.80;;;;;;;;;;4786911;29;20072;-93
2023/12/19 11:21:41;;;;;;;98.30;10.30;;;;;;;;;;4809201;29;20065;-95
2023/12/19 11:24:39;;;;;;;106.97;12.60;;;;;;;;;;4735477;30;20071;-95
2023/12/19 11:27:59;;;;;;;42.25;8.32;;;;;;;;;;4734866;30;20680;-95
2023/12/19 11:31:17;;;;;;;;;;;;;;;;;;;;;
2023/12/19 11:38:30;;;;;;;;;;;;;;;;;;;;;
2023/12/19 11:42:11;;;;;;;89.55;10.43;;;;;;;;;;4666846;30;20062;-93
2023/12/19 11:49:59;;;;;;;;;;;;;;;;;;;;;
2023/12/19 12:48:58;;;;;;;;;;;;;;;;;;;;;
2023/12/19 12:56:12;;;;;;;72.22;9.52;;;;;;;;;;5908386;24;20516;-93
2023/12/19 12:58:53;;;;;;;;;;;;;;;;;;5898249;24;20033;-90
2023/12/19 13:02:06;;;;;;;;;;;;;;;;;;;;;
2023/12/19 13:05:25;;;;;;;1277.82;130.82;;;;;;;;;;5687405;24;20092;-89
2023/12/19 13:16:21;;;;;;;804.15;78.10;;;;;;;;;;5748971;24;20048;-90
2023/12/19 13:19:26;;;;;;;1252.97;130.82;;;;;;;;;;5719652;24;20124;-88
2023/12/19 13:22:32;;;;;;;944.28;94.35;;;;;;;;;;5737430;24;20509;-89
2023/12/19 13:25:24;;;;;;;811.55;78.10;;;;;;;;;;5749533;24;20814;-90
2023/12/19 13:44:41;;;;;;;519.33;47.70;;;;;;;;;;6175367;23;20044;-91
2023/12/19 13:47:20;;;;;;;789.33;76.22;;;;;;;;;;6046451;23;21200;-90
2023/12/19 13:50:13;;;;;;;748.00;71.20;;;;;;;;;;5988481;23;20959;-91
2023/12/19 13:52:42;;;;;;;786.67;75.97;;;;;;;;;;6036782;23;20524;-90
2023/12/19 13:55:17;;;;;;;1074.70;112.15;;;;;;;;;;6015825;23;20021;-90
2023/12/19 13:57:47;;;;;;;738.42;71.65;;;;;;;;;;6046664;23;20017;-90
2023/12/19 14:00:21;;;;;;;571.55;51.20;;;;;;;;;;6054893;23;20629;-92
2023/12/19 14:03:31;;;;;;;613.38;57.00;;;;;;;;;;6038033;23;20057;-92
2023/12/19 14:06:02;;;;;;;380.83;34.22;;;;;;;;;;6104137;23;20542;-90
2023/12/19 14:08:50;;;;;;;225.20;21.63;;;;;;;;;;6181401;22;20022;-91
2023/12/19 14:11:20;;;;;;;361.73;32.17;;;;;;;;;;6214994;22;20026;-92
2023/12/19 14:13:50;;;;;;;300.13;28.50;;;;;;;;;;6286874;22;20093;-90
2023/12/19 14:16:17;;;;;;;299.02;28.58;;;;;;;;;;6260246;22;20102;-91
2023/12/19 14:18:44;;;;;;;270.00;25.33;;;;;;;;;;6265931;22;20095;-91
2023/12/19 14:21:15;;;;;;;388.75;35.50;;;;;;;;;;6271684;22;20820;-92
2023/12/19 14:23:46;;;;;;;49.53;10.50;;;;;;;;;;6258417;22;20018;-91
2023/12/19 14:26:16;;;;;;;266.60;27.20;;;;;;;;;;6275003;22;20019;-90
2023/12/19 14:28:44;;;;;;;34.05;9.50;;;;;;;;;;6302776;22;20014;-91
2023/12/19 14:31:16;;;;;;;131.90;17.10;;;;;;;;;;6331411;22;20064;-91
2023/12/19 14:33:45;;;;;;;40.95;10.23;;;;;;;;;;6312612;22;20018;-91
2023/12/19 14:36:12;;;;;;;303.90;29.90;;;;;;;;;;6307947;22;20072;-91
2023/12/19 14:38:40;;;;;;;71.60;13.57;;;;;;;;;;6301705;22;20015;-90
2023/12/19 14:41:07;;;;;;;59.70;12.02;;;;;;;;;;6332080;22;20017;-90
2023/12/19 14:43:33;;;;;;;49.28;11.07;;;;;;;;;;6326450;22;20014;-92
2023/12/19 14:46:00;;;;;;;70.32;12.15;;;;;;;;;;6313956;22;20095;-90
2023/12/19 14:48:26;;;;;;;143.85;17.60;;;;;;;;;;6316339;22;20093;-90
2023/12/19 14:50:53;;;;;;;100.03;14.07;;;;;;;;;;6332551;22;20097;-90
2023/12/19 14:53:20;;;;;;;27.83;10.75;;;;;;;;;;6336212;22;20007;-91
2023/12/19 14:55:47;;;;;;;56.85;11.30;;;;;;;;;;6285188;22;20019;-91
2023/12/19 14:58:14;;;;;;;54.17;11.75;;;;;;;;;;6310699;22;20015;-91
2023/12/19 15:00:41;;;;;;;20.45;9.82;;;;;;;;;;6277332;22;20007;-91
2023/12/19 15:03:08;;;;;;;76.07;12.75;;;;;;;;;;6330450;22;20019;-91
2023/12/19 15:05:34;;;;;;;31.17;10.07;;;;;;;;;;6337886;22;20098;-90
2023/12/19 15:08:01;;;;;;;36.75;15.02;;;;;;;;;;6338663;22;20022;-90
2023/12/19 15:10:28;;;;;;;147.65;19.25;;;;;;;;;;6321763;22;20098;-91
2023/12/19 15:12:55;;;;;;;93.75;15.32;;;;;;;;;;6331547;22;20015;-90
2023/12/19 15:15:23;;;;;;;45.25;10.95;;;;;;;;;;6337832;22;20422;-91
2023/12/19 15:17:50;;;;;;;52.28;11.35;;;;;;;;;;6336475;22;20006;-91
2023/12/19 15:20:17;;;;;;;84.07;16.27;;;;;;;;;;6283841;22;20040;-92
2023/12/19 15:22:43;;;;;;;39.55;11.88;;;;;;;;;;6314705;22;20006;-92
2023/12/19 15:25:10;;;;;;;93.10;15.45;;;;;;;;;;6322596;22;20068;-91
2023/12/19 15:27:37;;;;;;;462.42;44.20;;;;;;;;;;6306076;22;20046;-92
2023/12/19 15:30:05;;;;;;;207.68;24.10;;;;;;;;;;6249373;22;20022;-91
2023/12/19 15:32:35;;;;;;;540.90;53.45;;;;;;;;;;6235481;22;21022;-91
2023/12/19 15:35:02;;;;;;;103.03;16.58;;;;;;;;;;6290249;22;20042;-91
2023/12/19 15:37:29;;;;;;;228.35;25.25;;;;;;;;;;6306474;22;20015;-90
2023/12/19 15:39:55;;;;;;;168.38;21.45;;;;;;;;;;6283090;22;20397;-91
2023/12/19 15:42:22;;;;;;;72.93;13.63;;;;;;;;;;6280258;22;20025;-91
2023/12/19 15:44:49;;;;;;;151.65;18.60;;;;;;;;;;6282862;22;20553;-91
2023/12/19 15:47:16;;;;;;;112.50;14.52;;;;;;;;;;6317018;22;20341;-91
2023/12/19 15:49:42;;;;;;;127.43;16.55;;;;;;;;;;6306639;22;20042;-91
2023/12/19 15:52:09;;;;;;;159.48;17.77;;;;;;;;;;6306320;22;20560;-91
2023/12/19 15:54:36;;;;;;;424.63;38.90;;;;;;;;;;6271874;22;20840;-90
2023/12/19 15:57:03;;;;;;;72.78;12.05;;;;;;;;;;6305025;22;20010;-90
2023/12/19 15:59:30;;;;;;;164.65;18.02;;;;;;;;;;6293370;22;20019;-90
2023/12/19 16:01:57;;;;;;;428.83;39.47;;;;;;;;;;6239181;22;20083;-91
2023/12/19 16:04:24;;;;;;;212.65;21.73;;;;;;;;;;6291147;22;20110;-90
2023/12/19 16:06:52;;;;;;;49.20;10.10;;;;;;;;;;6285637;22;20025;-90
2023/12/19 16:09:20;;;;;;;377.90;36.42;;;;;;;;;;6258156;22;20758;-91
2023/12/19 16:11:48;;;;;;;543.35;49.33;;;;;;;;;;6212132;22;20030;-91
2023/12/19 16:14:14;;;;;;;506.42;45.30;;;;;;;;;;6262091;22;20528;-91
2023/12/19 16:16:42;;;;;;;136.07;16.48;;;;;;;;;;6286873;22;20450;-91
2023/12/19 16:19:09;;;;;;;368.00;32.97;;;;;;;;;;6290605;22;20072;-91
2023/12/19 16:21:36;;;;;;;401.77;36.80;;;;;;;;;;6259599;22;20777;-90
2023/12/19 16:24:03;;;;;;;536.22;49.78;;;;;;;;;;6235020;22;20019;-91
2023/12/19 16:26:31;;;;;;;471.90;43.03;;;;;;;;;;6255326;22;20007;-91
2023/12/19 16:28:58;;;;;;;564.20;51.33;;;;;;;;;;6260602;22;20164;-91